sensor_id;sensor_type;location;lat;lon;timestamp;temperature;humidity
14993;DHT22;7592;51.088;13.732;2024-03-17T00:03:44;5.90;99.90
14993;DHT22;7592;51.088;13.732;2024-03-17T00:08:35;6.00;99.90
14993;DHT22;7592;51.088;13.732;2024-03-17T00:13:26;6.10;99.90
14993;DHT22;7592;51.088;13.732;2024-03-17T00:18:18;6.30;99.90
14993;DHT22;7592;51.088;13.732;2024-03-17T00:23:09;6.40;99.90
14993;DHT22;7592;51.088;13.732;2024-03-17T00:28:02;6.40;99.90
14993;DHT22;7592;51.088;13.732;2024-03-17T00:32:53;6.40;99.90
14993;DHT22;7592;51.088;13.732;2024-03-17T00:37:50;6.40;99.90
14993;DHT22;7592;51.088;13.732;2024-03-17T00:42:41;6.20;99.90
14993;DHT22;7592;51.088;13.732;2024-03-17T00:47:32;6.00;99.90
14993;DHT22;7592;51.088;13.732;2024-03-17T00:52:24;5.70;99.90
14993;DHT22;7592;51.088;13.732;2024-03-17T00:57:15;5.50;99.90
14993;DHT22;7592;51.088;13.732;2024-03-17T01:02:11;5.30;99.90
14993;DHT22;7592;51.088;13.732;2024-03-17T01:07:07;5.20;99.90
14993;DHT22;7592;51.088;13.732;2024-03-17T01:11:58;5.00;99.90
14993;DHT22;7592;51.088;13.732;2024-03-17T01:16:51;4.90;99.90
14993;DHT22;7592;51.088;13.732;2024-03-17T01:21:42;4.90;99.90
14993;DHT22;7592;51.088;13.732;2024-03-17T01:26:33;4.70;99.90
14993;DHT22;7592;51.088;13.732;2024-03-17T01:31:24;4.60;99.90
14993;DHT22;7592;51.088;13.732;2024-03-17T01:36:15;4.50;99.90
14993;DHT22;7592;51.088;13.732;2024-03-17T01:41:07;4.40;99.90
14993;DHT22;7592;51.088;13.732;2024-03-17T01:45:58;4.30;99.90
14993;DHT22;7592;51.088;13.732;2024-03-17T01:50:52;4.20;99.90
14993;DHT22;7592;51.088;13.732;2024-03-17T01:55:44;4.20;99.90
14993;DHT22;7592;51.088;13.732;2024-03-17T02:00:37;4.10;99.90
14993;DHT22;7592;51.088;13.732;2024-03-17T02:12:09;4.00;99.90
14993;DHT22;7592;51.088;13.732;2024-03-17T02:17:00;4.30;99.90
14993;DHT22;7592;51.088;13.732;2024-03-17T02:21:51;4.50;99.90
14993;DHT22;7592;51.088;13.732;2024-03-17T02:26:42;4.70;99.90
14993;DHT22;7592;51.088;13.732;2024-03-17T02:31:34;4.70;99.90
14993;DHT22;7592;51.088;13.732;2024-03-17T02:36:25;4.60;99.90
14993;DHT22;7592;51.088;13.732;2024-03-17T02:41:16;4.30;99.90
14993;DHT22;7592;51.088;13.732;2024-03-17T02:46:13;4.20;99.90
14993;DHT22;7592;51.088;13.732;2024-03-17T02:51:04;4.00;99.90
14993;DHT22;7592;51.088;13.732;2024-03-17T02:55:55;4.00;99.90
14993;DHT22;7592;51.088;13.732;2024-03-17T03:00:47;3.90;99.90
14993;DHT22;7592;51.088;13.732;2024-03-17T03:05:38;3.80;99.90
14993;DHT22;7592;51.088;13.732;2024-03-17T03:10:29;3.70;99.90
14993;DHT22;7592;51.088;13.732;2024-03-17T03:15:20;3.70;99.90
14993;DHT22;7592;51.088;13.732;2024-03-17T03:20:12;3.60;99.90
14993;DHT22;7592;51.088;13.732;2024-03-17T03:25:03;3.50;99.90
14993;DHT22;7592;51.088;13.732;2024-03-17T03:29:54;3.40;99.90
14993;DHT22;7592;51.088;13.732;2024-03-17T03:34:47;3.30;99.90
14993;DHT22;7592;51.088;13.732;2024-03-17T03:39:38;3.30;99.90
14993;DHT22;7592;51.088;13.732;2024-03-17T03:44:29;3.50;99.90
14993;DHT22;7592;51.088;13.732;2024-03-17T03:49:20;3.80;99.90
14993;DHT22;7592;51.088;13.732;2024-03-17T03:54:11;3.90;99.90
14993;DHT22;7592;51.088;13.732;2024-03-17T03:59:03;4.10;99.90
14993;DHT22;7592;51.088;13.732;2024-03-17T04:03:54;4.40;99.90
14993;DHT22;7592;51.088;13.732;2024-03-17T04:08:45;4.50;99.90
14993;DHT22;7592;51.088;13.732;2024-03-17T04:13:36;4.80;99.90
14993;DHT22;7592;51.088;13.732;2024-03-17T04:18:27;5.00;99.90
14993;DHT22;7592;51.088;13.732;2024-03-17T04:23:21;5.00;99.90
14993;DHT22;7592;51.088;13.732;2024-03-17T04:28:13;5.10;99.90
14993;DHT22;7592;51.088;13.732;2024-03-17T04:33:05;5.10;99.90
14993;DHT22;7592;51.088;13.732;2024-03-17T04:37:57;5.10;99.90
14993;DHT22;7592;51.088;13.732;2024-03-17T04:42:48;5.10;99.90
14993;DHT22;7592;51.088;13.732;2024-03-17T04:47:39;5.20;99.90
14993;DHT22;7592;51.088;13.732;2024-03-17T04:52:31;5.20;99.90
14993;DHT22;7592;51.088;13.732;2024-03-17T04:57:22;5.20;99.90
14993;DHT22;7592;51.088;13.732;2024-03-17T05:02:13;5.30;99.90
14993;DHT22;7592;51.088;13.732;2024-03-17T05:07:04;5.20;99.90
14993;DHT22;7592;51.088;13.732;2024-03-17T05:11:55;5.20;99.90
14993;DHT22;7592;51.088;13.732;2024-03-17T05:16:50;5.30;99.90
14993;DHT22;7592;51.088;13.732;2024-03-17T05:21:41;5.40;99.90
14993;DHT22;7592;51.088;13.732;2024-03-17T05:26:32;5.60;99.90
14993;DHT22;7592;51.088;13.732;2024-03-17T05:31:23;5.60;99.90
14993;DHT22;7592;51.088;13.732;2024-03-17T05:36:15;5.70;99.90
14993;DHT22;7592;51.088;13.732;2024-03-17T05:41:07;5.80;99.90
14993;DHT22;7592;51.088;13.732;2024-03-17T05:46:00;5.90;99.90
14993;DHT22;7592;51.088;13.732;2024-03-17T05:50:54;6.10;99.90
14993;DHT22;7592;51.088;13.732;2024-03-17T05:55:45;6.20;99.90
14993;DHT22;7592;51.088;13.732;2024-03-17T06:00:39;6.30;99.90
14993;DHT22;7592;51.088;13.732;2024-03-17T06:05:38;6.50;99.90
14993;DHT22;7592;51.088;13.732;2024-03-17T06:10:32;6.70;99.90
14993;DHT22;7592;51.088;13.732;2024-03-17T06:15:26;6.80;99.90
14993;DHT22;7592;51.088;13.732;2024-03-17T06:20:21;7.00;99.90
14993;DHT22;7592;51.088;13.732;2024-03-17T06:25:13;7.20;99.90
14993;DHT22;7592;51.088;13.732;2024-03-17T06:30:04;7.40;99.90
14993;DHT22;7592;51.088;13.732;2024-03-17T06:34:55;7.70;99.90
14993;DHT22;7592;51.088;13.732;2024-03-17T06:39:47;7.80;99.90
14993;DHT22;7592;51.088;13.732;2024-03-17T06:44:38;8.00;99.90
14993;DHT22;7592;51.088;13.732;2024-03-17T06:49:30;8.10;99.90
14993;DHT22;7592;51.088;13.732;2024-03-17T06:54:21;8.40;99.90
14993;DHT22;7592;51.088;13.732;2024-03-17T06:59:13;9.80;99.90
14993;DHT22;7592;51.088;13.732;2024-03-17T07:04:04;13.80;99.90
14993;DHT22;7592;51.088;13.732;2024-03-17T07:08:55;18.20;99.90
14993;DHT22;7592;51.088;13.732;2024-03-17T07:13:46;20.90;82.90
14993;DHT22;7592;51.088;13.732;2024-03-17T07:18:37;21.70;72.00
14993;DHT22;7592;51.088;13.732;2024-03-17T07:23:28;19.80;71.20
14993;DHT22;7592;51.088;13.732;2024-03-17T07:28:19;17.60;77.20
14993;DHT22;7592;51.088;13.732;2024-03-17T07:33:10;15.90;80.50
14993;DHT22;7592;51.088;13.732;2024-03-17T07:38:01;15.80;85.10
14993;DHT22;7592;51.088;13.732;2024-03-17T07:42:52;18.40;77.00
14993;DHT22;7592;51.088;13.732;2024-03-17T07:47:44;16.80;78.50
14993;DHT22;7592;51.088;13.732;2024-03-17T07:52:35;16.00;82.80
14993;DHT22;7592;51.088;13.732;2024-03-17T07:57:27;16.40;82.70
14993;DHT22;7592;51.088;13.732;2024-03-17T08:02:18;18.50;80.00
14993;DHT22;7592;51.088;13.732;2024-03-17T08:07:09;22.10;67.80
14993;DHT22;7592;51.088;13.732;2024-03-17T08:12:00;22.30;66.00
14993;DHT22;7592;51.088;13.732;2024-03-17T08:16:54;21.60;61.40
14993;DHT22;7592;51.088;13.732;2024-03-17T08:21:45;19.40;65.60
14993;DHT22;7592;51.088;13.732;2024-03-17T08:26:36;17.70;69.20
14993;DHT22;7592;51.088;13.732;2024-03-17T08:31:28;16.30;73.20
14993;DHT22;7592;51.088;13.732;2024-03-17T08:36:19;16.00;75.90
14993;DHT22;7592;51.088;13.732;2024-03-17T08:41:11;15.90;76.40
14993;DHT22;7592;51.088;13.732;2024-03-17T08:46:08;16.00;77.50
14993;DHT22;7592;51.088;13.732;2024-03-17T08:51:00;16.00;77.60
14993;DHT22;7592;51.088;13.732;2024-03-17T08:55:52;16.50;79.00
14993;DHT22;7592;51.088;13.732;2024-03-17T09:00:45;16.40;76.30
14993;DHT22;7592;51.088;13.732;2024-03-17T09:05:37;16.70;77.50
14993;DHT22;7592;51.088;13.732;2024-03-17T09:10:28;17.10;74.80
14993;DHT22;7592;51.088;13.732;2024-03-17T09:15:19;17.00;74.70
14993;DHT22;7592;51.088;13.732;2024-03-17T09:20:12;16.90;73.10
14993;DHT22;7592;51.088;13.732;2024-03-17T09:25:08;17.30;74.10
14993;DHT22;7592;51.088;13.732;2024-03-17T09:29:59;17.00;73.10
14993;DHT22;7592;51.088;13.732;2024-03-17T09:34:51;17.10;74.10
14993;DHT22;7592;51.088;13.732;2024-03-17T09:39:42;17.70;70.40
14993;DHT22;7592;51.088;13.732;2024-03-17T09:44:35;18.10;68.70
14993;DHT22;7592;51.088;13.732;2024-03-17T09:49:28;18.70;66.70
14993;DHT22;7592;51.088;13.732;2024-03-17T09:54:19;18.60;66.20
14993;DHT22;7592;51.088;13.732;2024-03-17T09:59:10;18.10;65.40
14993;DHT22;7592;51.088;13.732;2024-03-17T10:04:01;21.70;61.00
14993;DHT22;7592;51.088;13.732;2024-03-17T10:08:56;25.00;53.70
14993;DHT22;7592;51.088;13.732;2024-03-17T10:14:06;24.80;52.40
14993;DHT22;7592;51.088;13.732;2024-03-17T10:19:16;24.50;51.50
14993;DHT22;7592;51.088;13.732;2024-03-17T10:24:13;22.80;52.80
14993;DHT22;7592;51.088;13.732;2024-03-17T10:29:14;21.00;54.50
14993;DHT22;7592;51.088;13.732;2024-03-17T10:34:15;21.30;55.80
14993;DHT22;7592;51.088;13.732;2024-03-17T10:39:39;23.10;53.40
14993;DHT22;7592;51.088;13.732;2024-03-17T10:44:36;21.60;53.70
14993;DHT22;7592;51.088;13.732;2024-03-17T10:49:32;20.10;56.50
14993;DHT22;7592;51.088;13.732;2024-03-17T10:54:25;18.60;59.30
14993;DHT22;7592;51.088;13.732;2024-03-17T10:59:42;17.70;60.50
14993;DHT22;7592;51.088;13.732;2024-03-17T11:04:37;18.00;60.30
14993;DHT22;7592;51.088;13.732;2024-03-17T11:09:28;17.30;62.40
14993;DHT22;7592;51.088;13.732;2024-03-17T11:14:19;17.10;62.90
14993;DHT22;7592;51.088;13.732;2024-03-17T11:19:15;16.90;62.70
14993;DHT22;7592;51.088;13.732;2024-03-17T11:24:19;16.90;63.00
14993;DHT22;7592;51.088;13.732;2024-03-17T11:29:29;20.40;60.00
14993;DHT22;7592;51.088;13.732;2024-03-17T11:34:33;22.10;53.80
14993;DHT22;7592;51.088;13.732;2024-03-17T11:39:48;22.00;55.40
14993;DHT22;7592;51.088;13.732;2024-03-17T11:45:00;24.20;51.80
14993;DHT22;7592;51.088;13.732;2024-03-17T11:49:52;20.90;55.10
14993;DHT22;7592;51.088;13.732;2024-03-17T11:54:46;19.00;60.00
14993;DHT22;7592;51.088;13.732;2024-03-17T11:59:45;19.00;58.50
14993;DHT22;7592;51.088;13.732;2024-03-17T12:04:39;17.20;61.00
14993;DHT22;7592;51.088;13.732;2024-03-17T12:09:31;17.00;61.90
14993;DHT22;7592;51.088;13.732;2024-03-17T12:14:23;16.90;62.10
14993;DHT22;7592;51.088;13.732;2024-03-17T12:19:16;16.70;63.60
14993;DHT22;7592;51.088;13.732;2024-03-17T12:24:34;16.50;63.00
14993;DHT22;7592;51.088;13.732;2024-03-17T12:29:27;16.20;64.30
14993;DHT22;7592;51.088;13.732;2024-03-17T12:34:21;16.00;65.60
14993;DHT22;7592;51.088;13.732;2024-03-17T12:39:21;15.50;67.50
14993;DHT22;7592;51.088;13.732;2024-03-17T12:44:22;14.50;68.60
14993;DHT22;7592;51.088;13.732;2024-03-17T12:49:13;14.10;69.20
14993;DHT22;7592;51.088;13.732;2024-03-17T12:54:14;13.70;70.60
14993;DHT22;7592;51.088;13.732;2024-03-17T12:59:09;13.90;71.60
14993;DHT22;7592;51.088;13.732;2024-03-17T13:04:20;13.80;72.70
14993;DHT22;7592;51.088;13.732;2024-03-17T13:09:11;14.20;71.10
14993;DHT22;7592;51.088;13.732;2024-03-17T13:14:02;14.00;70.70
14993;DHT22;7592;51.088;13.732;2024-03-17T13:18:53;13.90;69.10
14993;DHT22;7592;51.088;13.732;2024-03-17T13:23:44;14.20;70.90
14993;DHT22;7592;51.088;13.732;2024-03-17T13:28:35;14.30;71.70
14993;DHT22;7592;51.088;13.732;2024-03-17T13:33:26;14.30;71.50
14993;DHT22;7592;51.088;13.732;2024-03-17T13:38:18;14.30;71.20
14993;DHT22;7592;51.088;13.732;2024-03-17T13:43:09;14.30;70.70
14993;DHT22;7592;51.088;13.732;2024-03-17T13:48:03;14.30;70.70
14993;DHT22;7592;51.088;13.732;2024-03-17T13:52:55;14.40;70.10
14993;DHT22;7592;51.088;13.732;2024-03-17T13:57:50;14.40;69.90
14993;DHT22;7592;51.088;13.732;2024-03-17T14:02:49;14.00;70.00
14993;DHT22;7592;51.088;13.732;2024-03-17T14:07:41;13.30;71.50
14993;DHT22;7592;51.088;13.732;2024-03-17T14:12:32;13.10;72.30
14993;DHT22;7592;51.088;13.732;2024-03-17T14:17:23;12.70;73.40
14993;DHT22;7592;51.088;13.732;2024-03-17T14:22:14;13.00;74.30
14993;DHT22;7592;51.088;13.732;2024-03-17T14:27:06;13.00;74.10
14993;DHT22;7592;51.088;13.732;2024-03-17T14:31:57;13.10;74.50
14993;DHT22;7592;51.088;13.732;2024-03-17T14:36:48;13.40;74.30
14993;DHT22;7592;51.088;13.732;2024-03-17T14:41:39;13.80;72.80
14993;DHT22;7592;51.088;13.732;2024-03-17T14:46:30;13.70;71.50
14993;DHT22;7592;51.088;13.732;2024-03-17T14:51:22;13.20;72.10
14993;DHT22;7592;51.088;13.732;2024-03-17T14:56:22;13.20;73.40
14993;DHT22;7592;51.088;13.732;2024-03-17T15:01:14;13.10;72.80
14993;DHT22;7592;51.088;13.732;2024-03-17T15:06:14;12.70;72.90
14993;DHT22;7592;51.088;13.732;2024-03-17T15:11:09;12.40;74.60
14993;DHT22;7592;51.088;13.732;2024-03-17T15:16:00;12.40;75.80
14993;DHT22;7592;51.088;13.732;2024-03-17T15:20:52;12.20;75.60
14993;DHT22;7592;51.088;13.732;2024-03-17T15:25:45;12.20;76.80
14993;DHT22;7592;51.088;13.732;2024-03-17T15:30:36;12.20;77.10
14993;DHT22;7592;51.088;13.732;2024-03-17T15:35:29;12.20;78.00
14993;DHT22;7592;51.088;13.732;2024-03-17T15:40:21;12.20;78.00
14993;DHT22;7592;51.088;13.732;2024-03-17T15:45:15;12.10;78.60
14993;DHT22;7592;51.088;13.732;2024-03-17T15:50:06;12.00;78.50
14993;DHT22;7592;51.088;13.732;2024-03-17T15:54:58;12.00;78.40
14993;DHT22;7592;51.088;13.732;2024-03-17T15:59:50;11.80;78.50
14993;DHT22;7592;51.088;13.732;2024-03-17T16:04:42;11.50;79.00
14993;DHT22;7592;51.088;13.732;2024-03-17T16:09:34;11.20;80.50
14993;DHT22;7592;51.088;13.732;2024-03-17T16:14:25;10.80;82.20
14993;DHT22;7592;51.088;13.732;2024-03-17T16:19:25;10.60;83.60
14993;DHT22;7592;51.088;13.732;2024-03-17T16:24:17;10.70;83.70
14993;DHT22;7592;51.088;13.732;2024-03-17T16:29:09;10.60;82.80
14993;DHT22;7592;51.088;13.732;2024-03-17T16:34:01;10.30;84.10
14993;DHT22;7592;51.088;13.732;2024-03-17T16:38:53;10.10;84.60
14993;DHT22;7592;51.088;13.732;2024-03-17T16:48:56;9.70;86.40
14993;DHT22;7592;51.088;13.732;2024-03-17T16:53:48;9.50;87.70
14993;DHT22;7592;51.088;13.732;2024-03-17T16:58:40;9.30;89.20
14993;DHT22;7592;51.088;13.732;2024-03-17T17:03:32;9.10;90.30
14993;DHT22;7592;51.088;13.732;2024-03-17T17:08:27;8.90;91.20
14993;DHT22;7592;51.088;13.732;2024-03-17T17:13:20;8.70;92.10
14993;DHT22;7592;51.088;13.732;2024-03-17T17:18:47;8.50;93.60
14993;DHT22;7592;51.088;13.732;2024-03-17T17:23:40;8.40;96.30
14993;DHT22;7592;51.088;13.732;2024-03-17T17:28:33;8.20;99.90
14993;DHT22;7592;51.088;13.732;2024-03-17T17:33:24;8.20;99.90
14993;DHT22;7592;51.088;13.732;2024-03-17T17:38:15;8.20;99.90
14993;DHT22;7592;51.088;13.732;2024-03-17T17:43:06;8.20;99.90
14993;DHT22;7592;51.088;13.732;2024-03-17T17:47:57;8.20;99.90
14993;DHT22;7592;51.088;13.732;2024-03-17T17:52:49;8.20;99.90
14993;DHT22;7592;51.088;13.732;2024-03-17T17:57:40;8.10;99.90
14993;DHT22;7592;51.088;13.732;2024-03-17T18:02:31;8.00;99.90
14993;DHT22;7592;51.088;13.732;2024-03-17T18:07:22;8.00;99.90
14993;DHT22;7592;51.088;13.732;2024-03-17T18:12:13;7.90;99.90
14993;DHT22;7592;51.088;13.732;2024-03-17T18:17:04;7.90;99.90
14993;DHT22;7592;51.088;13.732;2024-03-17T18:21:56;7.90;99.90
14993;DHT22;7592;51.088;13.732;2024-03-17T18:26:47;7.70;99.90
14993;DHT22;7592;51.088;13.732;2024-03-17T18:31:38;7.60;99.90
14993;DHT22;7592;51.088;13.732;2024-03-17T18:36:30;7.50;99.90
14993;DHT22;7592;51.088;13.732;2024-03-17T18:41:21;7.40;99.90
14993;DHT22;7592;51.088;13.732;2024-03-17T18:46:18;7.20;99.90
14993;DHT22;7592;51.088;13.732;2024-03-17T18:51:09;7.20;99.90
14993;DHT22;7592;51.088;13.732;2024-03-17T18:56:03;7.00;99.90
14993;DHT22;7592;51.088;13.732;2024-03-17T19:00:59;6.80;99.90
14993;DHT22;7592;51.088;13.732;2024-03-17T19:05:52;6.70;99.90
14993;DHT22;7592;51.088;13.732;2024-03-17T19:10:51;6.70;99.90
14993;DHT22;7592;51.088;13.732;2024-03-17T19:15:42;6.60;99.90
14993;DHT22;7592;51.088;13.732;2024-03-17T19:20:33;6.60;99.90
14993;DHT22;7592;51.088;13.732;2024-03-17T19:25:24;6.40;99.90
14993;DHT22;7592;51.088;13.732;2024-03-17T19:30:17;6.30;99.90
14993;DHT22;7592;51.088;13.732;2024-03-17T19:35:10;6.00;99.90
14993;DHT22;7592;51.088;13.732;2024-03-17T19:40:01;5.80;99.90
14993;DHT22;7592;51.088;13.732;2024-03-17T19:44:53;5.70;99.90
14993;DHT22;7592;51.088;13.732;2024-03-17T19:49:45;5.60;99.90
14993;DHT22;7592;51.088;13.732;2024-03-17T19:54:37;5.50;99.90
14993;DHT22;7592;51.088;13.732;2024-03-17T19:59:29;5.40;99.90
14993;DHT22;7592;51.088;13.732;2024-03-17T20:04:20;5.20;99.90
14993;DHT22;7592;51.088;13.732;2024-03-17T20:09:11;5.20;99.90
14993;DHT22;7592;51.088;13.732;2024-03-17T20:14:04;5.10;99.90
14993;DHT22;7592;51.088;13.732;2024-03-17T20:18:55;5.10;99.90
14993;DHT22;7592;51.088;13.732;2024-03-17T20:23:47;4.90;99.90
14993;DHT22;7592;51.088;13.732;2024-03-17T20:28:38;4.70;99.90
14993;DHT22;7592;51.088;13.732;2024-03-17T20:33:29;4.50;99.90
14993;DHT22;7592;51.088;13.732;2024-03-17T20:38:21;4.40;99.90
14993;DHT22;7592;51.088;13.732;2024-03-17T20:43:12;4.30;99.90
14993;DHT22;7592;51.088;13.732;2024-03-17T20:48:03;4.50;99.90
14993;DHT22;7592;51.088;13.732;2024-03-17T20:52:55;4.40;99.90
14993;DHT22;7592;51.088;13.732;2024-03-17T20:57:48;4.20;99.90
14993;DHT22;7592;51.088;13.732;2024-03-17T21:02:40;4.10;99.90
14993;DHT22;7592;51.088;13.732;2024-03-17T21:07:31;4.10;99.90
14993;DHT22;7592;51.088;13.732;2024-03-17T21:12:22;4.00;99.90
14993;DHT22;7592;51.088;13.732;2024-03-17T21:17:14;3.90;99.90
14993;DHT22;7592;51.088;13.732;2024-03-17T21:22:05;3.90;99.90
14993;DHT22;7592;51.088;13.732;2024-03-17T21:26:57;3.90;99.90
14993;DHT22;7592;51.088;13.732;2024-03-17T21:31:48;4.00;99.90
14993;DHT22;7592;51.088;13.732;2024-03-17T21:36:39;3.80;99.90
14993;DHT22;7592;51.088;13.732;2024-03-17T21:41:30;3.60;99.90
14993;DHT22;7592;51.088;13.732;2024-03-17T21:46:21;3.50;99.90
14993;DHT22;7592;51.088;13.732;2024-03-17T21:51:13;3.50;99.90
14993;DHT22;7592;51.088;13.732;2024-03-17T21:56:04;3.40;99.90
14993;DHT22;7592;51.088;13.732;2024-03-17T22:01:02;3.40;99.90
14993;DHT22;7592;51.088;13.732;2024-03-17T22:05:54;3.20;99.90
14993;DHT22;7592;51.088;13.732;2024-03-17T22:10:56;3.20;99.90
14993;DHT22;7592;51.088;13.732;2024-03-17T22:15:55;3.20;99.90
14993;DHT22;7592;51.088;13.732;2024-03-17T22:25:51;3.00;99.90
14993;DHT22;7592;51.088;13.732;2024-03-17T22:30:52;3.00;99.90
14993;DHT22;7592;51.088;13.732;2024-03-17T22:35:43;2.70;99.90
14993;DHT22;7592;51.088;13.732;2024-03-17T22:40:36;2.60;99.90
14993;DHT22;7592;51.088;13.732;2024-03-17T22:45:28;2.70;99.90
14993;DHT22;7592;51.088;13.732;2024-03-17T22:50:19;2.70;99.90
14993;DHT22;7592;51.088;13.732;2024-03-17T22:55:10;2.60;99.90
14993;DHT22;7592;51.088;13.732;2024-03-17T23:00:02;2.50;99.90
14993;DHT22;7592;51.088;13.732;2024-03-17T23:04:56;2.60;99.90
14993;DHT22;7592;51.088;13.732;2024-03-17T23:09:47;2.50;99.90
14993;DHT22;7592;51.088;13.732;2024-03-17T23:14:40;2.30;99.90
14993;DHT22;7592;51.088;13.732;2024-03-17T23:19:31;2.30;99.90
14993;DHT22;7592;51.088;13.732;2024-03-17T23:24:22;2.30;99.90
14993;DHT22;7592;51.088;13.732;2024-03-17T23:29:13;2.30;99.90
14993;DHT22;7592;51.088;13.732;2024-03-17T23:34:04;2.40;99.90
14993;DHT22;7592;51.088;13.732;2024-03-17T23:38:55;2.20;99.90
14993;DHT22;7592;51.088;13.732;2024-03-17T23:43:47;2.10;99.90
14993;DHT22;7592;51.088;13.732;2024-03-17T23:48:38;2.00;99.90
14993;DHT22;7592;51.088;13.732;2024-03-17T23:53:29;2.10;99.90
14993;DHT22;7592;51.088;13.732;2024-03-17T23:58:20;1.90;99.90
